Time;durP1;ratioP1;P1;durP2;ratioP2;P2;SDS_P1;SDS_P2;PMS_P1;PMS_P2;Temp;Humidity;BMP_temperature;BMP_pressure;BME280_temperature;BME280_humidity;BME280_pressure;Samples;Min_cycle;Max_cycle;Signal;HPM_P1;HPM_P2
2022/12/10 00:00:54;;;;;;;183.63;69.82;;;;;;;;;;2106521;28;20078;-58
2022/12/10 00:01:55;;;;;;;158.73;56.72;;;;;;;;;;2106238;28;20416;-58
2022/12/10 00:02:56;;;;;;;128.38;48.17;;;;;;;;;;2106364;28;20485;-58
2022/12/10 00:03:58;;;;;;;178.60;62.80;;;;;;;;;;2106447;28;20056;-58
2022/12/10 00:04:59;;;;;;;115.80;43.85;;;;;;;;;;2106472;28;20075;-58
2022/12/10 00:06:01;;;;;;;134.07;47.33;;;;;;;;;;2106597;28;20058;-58
2022/12/10 00:07:02;;;;;;;149.80;52.05;;;;;;;;;;2106301;28;20488;-58
2022/12/10 00:08:03;;;;;;;208.65;72.80;;;;;;;;;;2106344;28;20084;-58
2022/12/10 00:09:06;;;;;;;267.27;84.60;;;;;;;;;;2106516;28;20063;-58
2022/12/10 00:10:07;;;;;;;134.10;50.85;;;;;;;;;;2106359;28;20047;-58
2022/12/10 00:11:13;;;;;;;140.32;50.90;;;;;;;;;;2106484;28;20052;-58
2022/12/10 00:12:14;;;;;;;155.52;51.72;;;;;;;;;;2106296;28;20040;-58
2022/12/10 00:13:15;;;;;;;206.48;69.38;;;;;;;;;;2106542;28;20050;-58
2022/12/10 00:14:16;;;;;;;268.80;86.60;;;;;;;;;;2106575;28;20396;-58
2022/12/10 00:15:17;;;;;;;170.98;57.38;;;;;;;;;;2106387;28;20060;-58
2022/12/10 00:16:19;;;;;;;135.88;50.88;;;;;;;;;;2106425;28;20083;-58
2022/12/10 00:17:20;;;;;;;;;;;;;;;;;;2106911;28;20048;-58
2022/12/10 00:18:21;;;;;;;116.57;43.60;;;;;;;;;;2106475;28;19974;-58
2022/12/10 00:19:23;;;;;;;118.93;40.28;;;;;;;;;;2106552;28;20044;-58
2022/12/10 00:20:23;;;;;;;139.35;46.88;;;;;;;;;;2106570;28;20044;-58
2022/12/10 00:21:26;;;;;;;114.20;43.28;;;;;;;;;;2106391;28;20093;-58
2022/12/10 00:22:27;;;;;;;130.15;46.92;;;;;;;;;;2106355;28;20044;-58
2022/12/10 00:23:29;;;;;;;128.07;46.80;;;;;;;;;;2106372;28;20040;-58
2022/12/10 00:24:30;;;;;;;147.13;49.03;;;;;;;;;;2106550;28;20063;-58
2022/12/10 00:25:31;;;;;;;119.50;45.88;;;;;;;;;;2106268;28;20044;-58
2022/12/10 00:26:34;;;;;;;130.63;46.90;;;;;;;;;;2106285;28;20489;-58
2022/12/10 00:27:35;;;;;;;132.35;46.80;;;;;;;;;;2106385;28;20109;-58
2022/12/10 00:28:36;;;;;;;115.93;43.88;;;;;;;;;;2106425;28;20048;-58
2022/12/10 00:29:37;;;;;;;130.20;45.67;;;;;;;;;;2106359;28;20056;-58
2022/12/10 00:30:38;;;;;;;122.35;45.63;;;;;;;;;;2106294;28;20496;-58
2022/12/10 00:31:40;;;;;;;116.93;43.55;;;;;;;;;;2106165;28;20302;-58
2022/12/10 00:32:41;;;;;;;130.55;45.72;;;;;;;;;;2106018;28;20484;-58
2022/12/10 00:33:42;;;;;;;115.93;42.87;;;;;;;;;;2106397;28;20071;-58
2022/12/10 00:34:44;;;;;;;116.75;43.42;;;;;;;;;;2106291;28;20055;-58
2022/12/10 00:35:45;;;;;;;126.45;43.38;;;;;;;;;;2106542;28;20043;-59
2022/12/10 00:36:47;;;;;;;127.93;42.57;;;;;;;;;;2106390;28;20086;-58
2022/12/10 00:37:48;;;;;;;138.10;45.50;;;;;;;;;;2106390;28;20092;-58
2022/12/10 00:38:50;;;;;;;100.67;36.47;;;;;;;;;;2106508;28;20080;-58
2022/12/10 00:39:51;;;;;;;118.60;40.60;;;;;;;;;;2106324;28;20048;-58
2022/12/10 00:40:52;;;;;;;119.43;42.22;;;;;;;;;;2106581;28;20062;-58
2022/12/10 00:41:53;;;;;;;106.00;38.13;;;;;;;;;;2106407;28;20048;-58
2022/12/10 00:42:54;;;;;;;105.53;38.30;;;;;;;;;;2106474;28;20044;-58
2022/12/10 00:43:55;;;;;;;114.03;38.77;;;;;;;;;;2106303;28;20127;-58
2022/12/10 00:44:56;;;;;;;101.63;36.00;;;;;;;;;;2106531;28;20044;-59
2022/12/10 00:45:57;;;;;;;90.65;31.98;;;;;;;;;;2106364;28;20059;-58
2022/12/10 00:46:58;;;;;;;138.95;44.97;;;;;;;;;;2106439;28;20091;-58
2022/12/10 00:48:00;;;;;;;109.00;39.08;;;;;;;;;;2106335;28;20059;-58
2022/12/10 00:49:01;;;;;;;105.55;35.40;;;;;;;;;;2106476;28;20055;-58
2022/12/10 00:50:03;;;;;;;97.15;35.33;;;;;;;;;;2106154;28;20070;-58
2022/12/10 00:51:05;;;;;;;135.20;46.45;;;;;;;;;;2106416;28;20059;-58
2022/12/10 00:52:06;;;;;;;104.50;38.60;;;;;;;;;;2106181;28;20043;-58
2022/12/10 00:53:07;;;;;;;128.07;50.22;;;;;;;;;;2106297;28;20443;-58
2022/12/10 00:54:09;;;;;;;100.90;36.35;;;;;;;;;;2106377;28;20080;-58
2022/12/10 00:55:10;;;;;;;111.15;40.25;;;;;;;;;;2106486;28;20040;-58
2022/12/10 00:56:12;;;;;;;98.37;35.63;;;;;;;;;;2106353;28;20069;-58
2022/12/10 00:57:13;;;;;;;81.90;32.63;;;;;;;;;;2106102;28;20063;-58
2022/12/10 00:58:14;;;;;;;132.32;38.88;;;;;;;;;;2106425;28;20143;-58
2022/12/10 00:59:15;;;;;;;86.10;33.33;;;;;;;;;;2106235;28;20044;-58
2022/12/10 01:00:16;;;;;;;81.65;30.98;;;;;;;;;;2106360;28;20048;-58
2022/12/10 01:01:18;;;;;;;95.78;33.65;;;;;;;;;;2106414;28;20048;-58
2022/12/10 01:02:20;;;;;;;100.18;32.33;;;;;;;;;;2106128;28;20048;-58
2022/12/10 01:03:21;;;;;;;;;;;;;;;;;;2106684;28;20044;-58
2022/12/10 01:04:22;;;;;;;85.68;32.92;;;;;;;;;;2106328;28;19934;-58
2022/12/10 01:05:24;;;;;;;109.10;34.55;;;;;;;;;;2106228;28;20396;-58
2022/12/10 01:06:27;;;;;;;116.72;38.42;;;;;;;;;;2106145;28;20477;-58
2022/12/10 01:07:28;;;;;;;79.70;29.73;;;;;;;;;;2106166;28;20515;-58
2022/12/10 01:08:29;;;;;;;120.90;34.50;;;;;;;;;;2106125;28;20071;-58
2022/12/10 01:09:30;;;;;;;101.45;34.13;;;;;;;;;;2106231;28;20055;-58
2022/12/10 01:10:31;;;;;;;88.93;32.95;;;;;;;;;;2106178;28;20052;-58
2022/12/10 01:11:34;;;;;;;87.28;30.23;;;;;;;;;;2106156;28;20157;-58
2022/12/10 01:12:35;;;;;;;89.53;30.75;;;;;;;;;;2106202;28;20040;-58
2022/12/10 01:13:36;;;;;;;94.17;31.63;;;;;;;;;;2106353;28;20048;-58
2022/12/10 01:14:37;;;;;;;76.18;30.23;;;;;;;;;;2106205;28;20104;-58
2022/12/10 01:15:39;;;;;;;94.07;31.60;;;;;;;;;;2106239;28;20075;-58
2022/12/10 01:16:40;;;;;;;112.65;34.85;;;;;;;;;;2106157;28;20055;-58
2022/12/10 01:17:41;;;;;;;81.28;29.63;;;;;;;;;;2106037;28;20048;-58
2022/12/10 01:18:42;;;;;;;96.38;31.95;;;;;;;;;;2106103;28;20546;-58
2022/12/10 01:19:43;;;;;;;96.78;30.27;;;;;;;;;;2106106;28;20052;-58
2022/12/10 01:20:44;;;;;;;175.38;40.53;;;;;;;;;;2106313;28;20404;-58
2022/12/10 01:21:49;;;;;;;164.50;42.65;;;;;;;;;;2106019;28;20055;-58
2022/12/10 01:22:50;;;;;;;161.55;42.90;;;;;;;;;;2106035;28;20048;-58
2022/12/10 01:23:51;;;;;;;134.53;32.97;;;;;;;;;;2106188;28;20051;-58
2022/12/10 01:24:52;;;;;;;100.05;30.92;;;;;;;;;;2106071;28;20499;-58
2022/12/10 01:25:53;;;;;;;138.18;32.17;;;;;;;;;;2106205;28;20132;-58
2022/12/10 01:26:55;;;;;;;99.55;28.20;;;;;;;;;;2106126;28;20040;-58
2022/12/10 01:27:56;;;;;;;119.38;26.85;;;;;;;;;;2106429;28;20356;-43
2022/12/10 01:28:58;;;;;;;137.27;33.85;;;;;;;;;;2105724;28;20051;-43
2022/12/10 01:29:59;;;;;;;189.07;35.22;;;;;;;;;;2106314;28;20051;-58
2022/12/10 01:31:01;;;;;;;153.43;34.20;;;;;;;;;;2106083;28;20052;-58
2022/12/10 01:32:02;;;;;;;125.45;35.47;;;;;;;;;;2106316;28;20114;-58
2022/12/10 01:33:03;;;;;;;106.28;30.83;;;;;;;;;;2105999;28;20048;-58
2022/12/10 01:34:06;;;;;;;133.15;32.75;;;;;;;;;;2106246;28;20052;-58
2022/12/10 01:35:07;;;;;;;122.22;32.75;;;;;;;;;;2106121;28;20048;-58
2022/12/10 01:36:10;;;;;;;145.43;32.90;;;;;;;;;;2105965;28;20052;-58
2022/12/10 01:37:11;;;;;;;125.57;31.13;;;;;;;;;;2105874;28;20047;-57
2022/12/10 01:38:12;;;;;;;91.88;24.90;;;;;;;;;;2106133;28;20090;-58
2022/12/10 01:39:14;;;;;;;199.07;33.03;;;;;;;;;;2106044;28;20093;-58
2022/12/10 01:40:15;;;;;;;242.90;38.42;;;;;;;;;;2105943;28;20448;-58
2022/12/10 01:41:17;;;;;;;251.93;39.58;;;;;;;;;;2105989;28;20051;-58
2022/12/10 01:42:19;;;;;;;173.73;36.90;;;;;;;;;;2105729;28;20048;-58
2022/12/10 01:43:19;;;;;;;184.07;34.97;;;;;;;;;;2106136;28;20048;-58
2022/12/10 01:44:39;;;;;;;195.00;38.63;;;;;;;;;;2105931;28;20040;-58
2022/12/10 01:45:40;;;;;;;170.93;32.35;;;;;;;;;;2106074;28;20055;-58
2022/12/10 01:46:42;;;;;;;228.48;39.13;;;;;;;;;;2105835;28;20182;-58
2022/12/10 01:47:43;;;;;;;101.53;23.35;;;;;;;;;;2105963;28;20074;-58
2022/12/10 01:48:44;;;;;;;167.57;32.95;;;;;;;;;;2106220;28;20098;-58
2022/12/10 01:49:45;;;;;;;263.65;37.42;;;;;;;;;;2105947;28;20095;-57
2022/12/10 01:50:46;;;;;;;125.05;29.58;;;;;;;;;;2105872;28;20114;-58
2022/12/10 01:51:49;;;;;;;121.15;27.75;;;;;;;;;;2105364;28;20059;-58
2022/12/10 01:52:51;;;;;;;185.60;32.80;;;;;;;;;;2105984;28;20052;-58
2022/12/10 01:53:52;;;;;;;133.20;31.05;;;;;;;;;;2105883;28;20055;-58
2022/12/10 01:54:53;;;;;;;225.00;37.63;;;;;;;;;;2105967;28;20363;-58
2022/12/10 01:55:54;;;;;;;121.82;28.95;;;;;;;;;;2105831;28;20047;-58
2022/12/10 01:56:58;;;;;;;99.00;28.50;;;;;;;;;;2105991;28;20109;-57
2022/12/10 01:57:59;;;;;;;192.82;32.85;;;;;;;;;;2105811;28;20052;-58
2022/12/10 01:59:01;;;;;;;192.20;32.03;;;;;;;;;;2105993;28;20040;-58
2022/12/10 02:00:06;;;;;;;125.07;28.10;;;;;;;;;;2105822;28;20052;-58
2022/12/10 02:01:10;;;;;;;199.70;34.17;;;;;;;;;;2105948;28;20047;-58
2022/12/10 02:02:14;;;;;;;241.07;38.45;;;;;;;;;;2105789;28;20093;-57
2022/12/10 02:03:19;;;;;;;145.68;31.02;;;;;;;;;;2105760;28;20044;-57
2022/12/10 02:04:22;;;;;;;225.13;34.75;;;;;;;;;;2105900;28;20080;-58
2022/12/10 02:05:25;;;;;;;200.25;29.67;;;;;;;;;;2105977;28;20044;-58
2022/12/10 02:06:31;;;;;;;93.10;26.75;;;;;;;;;;2105775;28;20044;-58
2022/12/10 02:07:38;;;;;;;175.13;34.22;;;;;;;;;;2105942;28;20052;-58
2022/12/10 02:08:41;;;;;;;170.18;29.48;;;;;;;;;;2106076;28;20432;-43
2022/12/10 02:09:44;;;;;;;285.85;35.67;;;;;;;;;;2105744;28;20093;-43
2022/12/10 02:10:49;;;;;;;323.60;39.05;;;;;;;;;;2105856;28;20051;-43
2022/12/10 02:11:54;;;;;;;321.70;40.33;;;;;;;;;;2105734;28;20067;-43
2022/12/10 02:12:58;;;;;;;225.02;36.92;;;;;;;;;;2105829;28;20094;-43
2022/12/10 02:14:02;;;;;;;243.32;34.60;;;;;;;;;;2105760;28;20044;-43
2022/12/10 02:15:06;;;;;;;279.85;36.60;;;;;;;;;;2105905;28;20044;-43
2022/12/10 02:16:10;;;;;;;215.77;30.15;;;;;;;;;;2105633;28;20105;-43
2022/12/10 02:17:13;;;;;;;231.48;36.38;;;;;;;;;;2105695;28;20050;-43
2022/12/10 02:18:18;;;;;;;206.57;31.95;;;;;;;;;;2105772;28;20101;-43
2022/12/10 02:19:21;;;;;;;266.42;33.35;;;;;;;;;;2105773;28;20412;-43
2022/12/10 02:20:24;;;;;;;253.35;32.67;;;;;;;;;;2105710;28;20400;-43
2022/12/10 02:21:28;;;;;;;165.45;26.77;;;;;;;;;;2105878;28;20043;-43
2022/12/10 02:22:32;;;;;;;215.70;34.30;;;;;;;;;;2105694;28;20040;-43
2022/12/10 02:23:35;;;;;;;230.85;33.42;;;;;;;;;;2105919;28;20047;-43
2022/12/10 02:24:37;;;;;;;156.60;22.65;;;;;;;;;;2105846;28;20048;-43
2022/12/10 02:25:49;;;;;;;228.60;30.80;;;;;;;;;;2105446;28;20097;-43
2022/12/10 02:26:56;;;;;;;204.75;30.52;;;;;;;;;;2105773;28;20058;-44
2022/12/10 02:28:01;;;;;;;172.90;27.90;;;;;;;;;;2105811;28;20044;-43
2022/12/10 02:29:07;;;;;;;221.90;30.02;;;;;;;;;;2105765;28;20051;-43
2022/12/10 02:30:08;;;;;;;226.77;31.10;;;;;;;;;;2105699;28;20417;-43
2022/12/10 02:31:11;;;;;;;177.80;25.85;;;;;;;;;;2105609;28;20452;-43
2022/12/10 02:32:14;;;;;;;343.90;37.28;;;;;;;;;;2105750;28;20343;-43
2022/12/10 02:33:16;;;;;;;106.72;21.67;;;;;;;;;;2105704;28;20050;-43
2022/12/10 02:34:17;;;;;;;226.48;28.33;;;;;;;;;;2105660;28;20040;-44
2022/12/10 02:35:20;;;;;;;190.70;27.98;;;;;;;;;;2105854;28;20043;-43
2022/12/10 02:36:22;;;;;;;208.05;29.70;;;;;;;;;;2105669;28;20476;-43
2022/12/10 02:37:27;;;;;;;115.60;24.30;;;;;;;;;;2105556;28;20087;-43
2022/12/10 02:38:29;;;;;;;282.35;32.58;;;;;;;;;;2105674;28;20051;-43
2022/12/10 02:39:33;;;;;;;173.07;27.05;;;;;;;;;;2105797;28;20059;-43
2022/12/10 02:40:35;;;;;;;190.95;28.67;;;;;;;;;;2105590;28;20051;-43
2022/12/10 02:41:38;;;;;;;199.77;31.13;;;;;;;;;;2105743;28;20044;-43
2022/12/10 02:42:41;;;;;;;239.80;30.88;;;;;;;;;;2105702;28;20105;-43
2022/12/10 02:43:43;;;;;;;180.68;29.00;;;;;;;;;;2105618;28;20052;-43
2022/12/10 02:44:46;;;;;;;222.32;30.38;;;;;;;;;;2105675;28;20459;-43
2022/12/10 02:45:48;;;;;;;239.38;29.63;;;;;;;;;;2105706;28;20048;-43
2022/12/10 02:46:50;;;;;;;162.15;27.95;;;;;;;;;;2105485;28;20055;-57
2022/12/10 02:47:51;;;;;;;;;;;;;;;;;;2106045;28;20062;-58
2022/12/10 02:48:53;;;;;;;97.88;21.13;;;;;;;;;;2105142;28;20238;-43
2022/12/10 02:49:56;;;;;;;162.60;27.77;;;;;;;;;;2105030;28;20516;-43
2022/12/10 02:50:57;;;;;;;150.43;26.50;;;;;;;;;;2105020;28;20485;-58
2022/12/10 02:51:59;;;;;;;200.40;27.33;;;;;;;;;;2111674;28;20047;-43
2022/12/10 02:53:00;;;;;;;189.65;27.02;;;;;;;;;;2113542;28;20044;-57
2022/12/10 02:54:02;;;;;;;297.00;32.53;;;;;;;;;;2113253;28;20043;-58
2022/12/10 02:55:03;;;;;;;96.63;23.30;;;;;;;;;;2113872;28;20055;-58
2022/12/10 02:56:13;;;;;;;149.45;26.27;;;;;;;;;;2114107;28;20048;-57
2022/12/10 02:57:17;;;;;;;135.45;23.27;;;;;;;;;;2113748;28;20055;-43
2022/12/10 02:58:22;;;;;;;97.65;22.60;;;;;;;;;;2113628;28;20043;-57
2022/12/10 02:59:27;;;;;;;159.90;24.05;;;;;;;;;;2114380;28;20043;-43
2022/12/10 03:00:31;;;;;;;224.40;28.35;;;;;;;;;;2114009;28;20047;-57
2022/12/10 03:01:37;;;;;;;104.60;22.35;;;;;;;;;;2114059;28;20400;-57
2022/12/10 03:02:43;;;;;;;160.77;23.67;;;;;;;;;;2114153;28;20055;-57
2022/12/10 03:03:48;;;;;;;84.13;20.95;;;;;;;;;;2115145;28;20168;-58
2022/12/10 03:04:52;;;;;;;105.38;21.77;;;;;;;;;;2115732;28;20055;-57
2022/12/10 03:05:56;;;;;;;171.02;26.15;;;;;;;;;;2115649;28;20047;-43
2022/12/10 03:06:59;;;;;;;128.43;20.85;;;;;;;;;;2115512;28;20055;-43
2022/12/10 03:08:03;;;;;;;185.70;24.75;;;;;;;;;;2115391;28;20051;-57
2022/12/10 03:09:06;;;;;;;182.45;24.48;;;;;;;;;;2115577;28;20105;-43
2022/12/10 03:10:10;;;;;;;130.48;23.73;;;;;;;;;;2115518;28;20040;-57
2022/12/10 03:11:13;;;;;;;204.20;27.10;;;;;;;;;;2115656;28;20051;-57
2022/12/10 03:12:17;;;;;;;212.23;27.52;;;;;;;;;;2115415;28;20571;-43
2022/12/10 03:13:19;;;;;;;185.48;23.52;;;;;;;;;;2115306;28;20044;-57
2022/12/10 03:14:22;;;;;;;232.20;27.73;;;;;;;;;;2114762;28;20043;-43
2022/12/10 03:15:24;;;;;;;160.82;23.13;;;;;;;;;;2114984;28;20055;-43
2022/12/10 03:16:28;;;;;;;137.80;21.65;;;;;;;;;;2114810;28;20344;-43
2022/12/10 03:17:31;;;;;;;202.85;23.65;;;;;;;;;;2114743;28;20146;-43
2022/12/10 03:18:34;;;;;;;251.10;27.13;;;;;;;;;;2115464;28;20047;-43
2022/12/10 03:19:37;;;;;;;162.23;23.38;;;;;;;;;;2115512;28;20047;-43
2022/12/10 03:20:39;;;;;;;360.08;32.33;;;;;;;;;;2115613;28;20047;-57
2022/12/10 03:21:41;;;;;;;185.23;24.73;;;;;;;;;;2111037;28;20100;-42
2022/12/10 03:22:43;;;;;;;159.85;22.38;;;;;;;;;;2106998;28;20055;-43
2022/12/10 03:23:46;;;;;;;210.70;25.48;;;;;;;;;;2107058;28;20040;-57
2022/12/10 03:24:47;;;;;;;328.60;32.28;;;;;;;;;;2107089;28;20048;-43
2022/12/10 03:25:49;;;;;;;196.75;24.83;;;;;;;;;;2107049;28;20123;-43
2022/12/10 03:26:50;;;;;;;269.92;30.77;;;;;;;;;;2107103;28;20044;-43
2022/12/10 03:27:54;;;;;;;233.77;28.00;;;;;;;;;;2107012;28;20043;-42
2022/12/10 03:28:58;;;;;;;170.90;24.15;;;;;;;;;;2107131;28;20040;-57
2022/12/10 03:29:59;;;;;;;106.80;19.90;;;;;;;;;;2106941;28;20054;-57
2022/12/10 03:31:01;;;;;;;195.48;26.27;;;;;;;;;;2107126;28;20052;-57
2022/12/10 03:32:03;;;;;;;309.23;31.35;;;;;;;;;;2106934;28;20131;-43
2022/12/10 03:33:04;;;;;;;178.00;23.92;;;;;;;;;;2106868;28;20481;-57
2022/12/10 03:34:06;;;;;;;185.68;24.88;;;;;;;;;;2107149;28;20052;-57
2022/12/10 03:35:07;;;;;;;161.10;22.00;;;;;;;;;;2106905;28;20400;-57
2022/12/10 03:36:08;;;;;;;253.43;26.42;;;;;;;;;;2107117;28;20055;-57
2022/12/10 03:37:10;;;;;;;186.80;22.15;;;;;;;;;;2106841;28;20477;-43
2022/12/10 03:38:11;;;;;;;236.68;25.80;;;;;;;;;;2107096;28;20044;-57
2022/12/10 03:39:12;;;;;;;283.23;28.88;;;;;;;;;;2107010;28;20037;-57
2022/12/10 06:46:26;;;;;;;33.56;19.36;;;;;;;;;;4275984;27;20305;-42
2022/12/10 06:47:27;;;;;;;32.45;18.73;;;;;;;;;;2129588;27;20254;-43
2022/12/10 06:48:29;;;;;;;40.23;20.90;;;;;;;;;;2129863;27;20082;-47
2022/12/10 06:49:30;;;;;;;32.20;17.55;;;;;;;;;;2127681;27;20046;-42
2022/12/10 06:50:31;;;;;;;37.15;19.55;;;;;;;;;;2121449;28;20055;-47
2022/12/10 06:51:32;;;;;;;32.55;17.33;;;;;;;;;;2121077;28;20145;-48
2022/12/10 06:52:33;;;;;;;32.03;16.55;;;;;;;;;;2121364;28;20050;-48
2022/12/10 06:53:34;;;;;;;28.38;16.63;;;;;;;;;;2121122;28;20415;-48
2022/12/10 06:54:36;;;;;;;29.00;17.27;;;;;;;;;;2120923;28;20059;-49
2022/12/10 06:55:37;;;;;;;29.35;17.27;;;;;;;;;;2121102;28;20043;-47
2022/12/10 06:56:38;;;;;;;30.02;16.77;;;;;;;;;;2121023;28;20313;-47
2022/12/10 06:57:40;;;;;;;28.38;17.00;;;;;;;;;;2121189;28;20453;-48
2022/12/10 06:58:41;;;;;;;33.72;17.42;;;;;;;;;;2120950;28;20039;-47
2022/12/10 06:59:43;;;;;;;31.92;16.58;;;;;;;;;;2120890;28;20434;-47
2022/12/10 07:00:43;;;;;;;29.10;15.88;;;;;;;;;;2120959;28;20066;-47
2022/12/10 07:01:46;;;;;;;31.30;17.80;;;;;;;;;;2121024;28;20078;-47
2022/12/10 07:02:47;;;;;;;30.25;16.75;;;;;;;;;;2121021;28;20054;-49
2022/12/10 07:03:49;;;;;;;32.83;17.00;;;;;;;;;;2121061;28;20047;-47
2022/12/10 07:04:50;;;;;;;30.60;17.42;;;;;;;;;;2120949;28;20047;-49
2022/12/10 07:05:51;;;;;;;31.33;16.95;;;;;;;;;;2120907;28;20050;-47
2022/12/10 07:06:52;;;;;;;29.17;16.95;;;;;;;;;;2121128;28;20483;-43
2022/12/10 07:07:53;;;;;;;28.30;16.90;;;;;;;;;;2120853;28;20047;-42
2022/12/10 07:08:54;;;;;;;31.70;17.27;;;;;;;;;;2121026;28;20130;-43
2022/12/10 07:09:55;;;;;;;28.77;15.98;;;;;;;;;;2120570;28;20075;-43
2022/12/10 07:10:56;;;;;;;28.63;16.52;;;;;;;;;;2120888;28;20144;-43
2022/12/10 07:11:57;;;;;;;27.13;16.77;;;;;;;;;;2121204;28;20578;-47
2022/12/10 07:12:58;;;;;;;29.88;16.90;;;;;;;;;;2121033;28;20446;-47
2022/12/10 07:13:59;;;;;;;22.60;12.00;;;;;;;;;;2121065;28;20097;-48
2022/12/10 07:15:00;;;;;;;27.52;15.65;;;;;;;;;;2120880;28;20039;-46
2022/12/10 07:16:01;;;;;;;30.07;16.27;;;;;;;;;;2121216;28;20062;-47
2022/12/10 07:17:05;;;;;;;25.30;16.02;;;;;;;;;;2121141;28;20067;-47
2022/12/10 07:18:06;;;;;;;30.95;16.48;;;;;;;;;;2121024;28;20484;-50
2022/12/10 07:19:08;;;;;;;30.17;15.98;;;;;;;;;;2120987;28;20039;-46
2022/12/10 07:20:11;;;;;;;27.33;17.48;;;;;;;;;;2120923;28;20035;-47
2022/12/10 07:21:13;;;;;;;34.28;18.00;;;;;;;;;;2120991;28;20047;-47
2022/12/10 07:22:14;;;;;;;32.55;17.67;;;;;;;;;;2120917;28;20070;-46
2022/12/10 07:23:15;;;;;;;31.48;16.35;;;;;;;;;;2121179;28;20162;-42
2022/12/10 07:24:17;;;;;;;40.20;24.73;;;;;;;;;;2120909;28;20087;-41
2022/12/10 07:25:18;;;;;;;126.82;60.13;;;;;;;;;;2120853;28;20134;-42
2022/12/10 07:26:20;;;;;;;89.20;45.23;;;;;;;;;;2121191;28;20071;-42
2022/12/10 07:27:20;;;;;;;54.33;30.08;;;;;;;;;;2121304;28;20047;-42
2022/12/10 07:28:22;;;;;;;58.38;32.40;;;;;;;;;;2120862;28;20507;-42
2022/12/10 07:29:23;;;;;;;33.60;20.38;;;;;;;;;;2120984;28;20115;-42
2022/12/10 07:30:24;;;;;;;62.33;38.33;;;;;;;;;;2120978;28;20089;-42
2022/12/10 07:31:25;;;;;;;55.67;33.08;;;;;;;;;;2121055;28;20050;-42
2022/12/10 07:32:27;;;;;;;46.47;28.70;;;;;;;;;;2121046;28;20186;-42
2022/12/10 07:33:28;;;;;;;38.60;25.00;;;;;;;;;;2120962;28;20051;-42
2022/12/10 07:34:29;;;;;;;50.37;32.47;;;;;;;;;;2120782;28;20525;-42
2022/12/10 07:35:30;;;;;;;39.33;24.70;;;;;;;;;;2121015;28;20055;-42
2022/12/10 07:36:31;;;;;;;63.28;41.47;;;;;;;;;;2120850;28;20048;-42
2022/12/10 07:37:33;;;;;;;37.47;22.65;;;;;;;;;;2121195;28;20544;-42
2022/12/10 07:38:34;;;;;;;37.58;24.85;;;;;;;;;;2120926;28;20052;-42
2022/12/10 07:39:35;;;;;;;38.03;23.35;;;;;;;;;;2121146;28;20043;-43
2022/12/10 07:40:36;;;;;;;39.60;27.27;;;;;;;;;;2120884;28;20044;-42
2022/12/10 07:41:37;;;;;;;44.00;30.17;;;;;;;;;;2120787;28;20043;-42
2022/12/10 07:42:38;;;;;;;39.33;25.48;;;;;;;;;;2121193;28;20193;-42
2022/12/10 07:43:40;;;;;;;34.05;18.67;;;;;;;;;;2120923;28;20055;-42
2022/12/10 07:44:42;;;;;;;33.75;19.02;;;;;;;;;;2113720;28;20400;-43
2022/12/10 07:45:49;;;;;;;25.83;13.27;;;;;;;;;;2110298;28;20063;-42
2022/12/10 07:46:51;;;;;;;45.97;29.13;;;;;;;;;;2106804;28;20484;-42
2022/12/10 07:47:52;;;;;;;35.75;22.20;;;;;;;;;;2106687;28;20048;-42
2022/12/10 07:48:54;;;;;;;36.78;22.63;;;;;;;;;;2106869;28;20094;-42
2022/12/10 07:49:55;;;;;;;38.83;23.88;;;;;;;;;;2106732;28;20052;-43
2022/12/10 07:50:56;;;;;;;36.70;18.77;;;;;;;;;;2106758;28;20052;-42
2022/12/10 07:51:59;;;;;;;35.65;20.92;;;;;;;;;;2106843;28;20121;-43
2022/12/10 07:53:00;;;;;;;31.05;18.23;;;;;;;;;;2106849;28;20044;-42
2022/12/10 07:54:01;;;;;;;30.50;17.43;;;;;;;;;;2106984;28;20097;-42
2022/12/10 07:55:02;;;;;;;37.75;21.73;;;;;;;;;;2106478;28;20405;-42
2022/12/10 07:56:04;;;;;;;34.53;20.30;;;;;;;;;;2106706;28;20048;-42
2022/12/10 07:57:05;;;;;;;28.70;18.02;;;;;;;;;;2106746;28;20339;-42
2022/12/10 07:58:06;;;;;;;33.30;18.77;;;;;;;;;;2106734;28;20040;-43
2022/12/10 07:59:07;;;;;;;33.70;19.20;;;;;;;;;;2106611;28;20401;-42
2022/12/10 08:00:09;;;;;;;31.45;18.13;;;;;;;;;;2106614;28;20040;-43
2022/12/10 08:01:11;;;;;;;31.70;18.45;;;;;;;;;;2106699;28;20051;-43
2022/12/10 08:02:12;;;;;;;39.60;22.27;;;;;;;;;;2106991;28;20100;-43
2022/12/10 08:03:14;;;;;;;30.00;20.15;;;;;;;;;;2106810;28;20489;-46
2022/12/10 08:04:15;;;;;;;35.42;20.48;;;;;;;;;;2106504;28;20519;-46
2022/12/10 08:05:17;;;;;;;30.52;18.15;;;;;;;;;;2106567;28;20124;-47
2022/12/10 08:06:19;;;;;;;30.55;17.92;;;;;;;;;;2106554;28;20480;-46
2022/12/10 08:07:20;;;;;;;32.70;18.98;;;;;;;;;;2106673;28;20047;-46
2022/12/10 08:08:21;;;;;;;34.80;20.38;;;;;;;;;;2106780;28;20052;-45
2022/12/10 08:09:22;;;;;;;33.83;21.08;;;;;;;;;;2106534;28;20052;-45
2022/12/10 08:10:23;;;;;;;39.13;20.23;;;;;;;;;;2106613;28;20052;-44
2022/12/10 08:11:26;;;;;;;39.92;20.98;;;;;;;;;;2106552;28;20047;-44
2022/12/10 08:12:27;;;;;;;34.05;20.17;;;;;;;;;;2106589;28;20055;-44
2022/12/10 08:13:28;;;;;;;40.78;21.60;;;;;;;;;;2106685;28;20063;-44
2022/12/10 08:14:30;;;;;;;36.67;19.83;;;;;;;;;;2106544;28;20051;-45
2022/12/10 08:15:31;;;;;;;39.60;20.63;;;;;;;;;;2106500;28;20040;-44
2022/12/10 08:16:32;;;;;;;31.90;18.92;;;;;;;;;;2106733;28;20048;-47
2022/12/10 08:17:34;;;;;;;40.92;20.45;;;;;;;;;;2106720;28;20040;-47
2022/12/10 08:18:37;;;;;;;38.15;22.52;;;;;;;;;;2106469;28;20055;-48
2022/12/10 08:19:38;;;;;;;34.42;20.85;;;;;;;;;;2106585;28;20096;-44
2022/12/10 08:20:39;;;;;;;44.53;27.17;;;;;;;;;;2106565;28;20044;-45
2022/12/10 08:21:40;;;;;;;39.10;21.10;;;;;;;;;;2106608;28;20079;-44
2022/12/10 08:22:41;;;;;;;40.65;22.63;;;;;;;;;;2106558;28;20047;-44
2022/12/10 08:23:42;;;;;;;39.65;21.52;;;;;;;;;;2106598;28;20144;-44
2022/12/10 08:24:44;;;;;;;33.88;21.17;;;;;;;;;;2106503;28;20044;-47
2022/12/10 08:25:44;;;;;;;40.35;20.80;;;;;;;;;;2106608;28;20093;-45
2022/12/10 08:26:45;;;;;;;37.72;19.33;;;;;;;;;;2106656;28;20400;-46
2022/12/10 08:27:47;;;;;;;40.83;20.95;;;;;;;;;;2106642;28;20044;-44
2022/12/10 08:28:48;;;;;;;33.28;18.67;;;;;;;;;;2106525;28;20048;-47
2022/12/10 08:29:49;;;;;;;37.40;21.75;;;;;;;;;;2106437;28;20097;-45
2022/12/10 08:30:50;;;;;;;44.13;25.48;;;;;;;;;;2106511;28;20533;-45
2022/12/10 08:31:51;;;;;;;36.80;20.23;;;;;;;;;;2106425;28;20105;-45
2022/12/10 08:32:53;;;;;;;39.17;20.33;;;;;;;;;;2106496;28;20126;-46
2022/12/10 08:33:54;;;;;;;37.25;20.65;;;;;;;;;;2106636;28;20510;-49
2022/12/10 08:34:55;;;;;;;49.22;21.10;;;;;;;;;;2106401;28;20077;-49
2022/12/10 08:35:57;;;;;;;35.97;19.88;;;;;;;;;;2106540;28;20036;-49
2022/12/10 08:36:58;;;;;;;39.17;20.67;;;;;;;;;;2106422;28;20048;-48
2022/12/10 08:37:59;;;;;;;34.55;17.88;;;;;;;;;;2106617;28;20055;-49
2022/12/10 08:39:00;;;;;;;34.25;18.80;;;;;;;;;;2106689;28;20078;-45
2022/12/10 08:40:01;;;;;;;40.97;19.40;;;;;;;;;;2106459;28;20430;-44
2022/12/10 08:41:06;;;;;;;55.05;26.75;;;;;;;;;;2113858;28;20075;-48
2022/12/10 08:42:07;;;;;;;46.15;22.42;;;;;;;;;;2114665;28;20048;-48
2022/12/10 08:43:08;;;;;;;39.03;16.67;;;;;;;;;;2114929;28;20046;-49
2022/12/10 08:44:09;;;;;;;83.18;37.30;;;;;;;;;;2114843;28;20047;-48
2022/12/10 08:45:10;;;;;;;77.25;34.97;;;;;;;;;;2114704;28;20051;-49
2022/12/10 08:46:12;;;;;;;106.63;45.55;;;;;;;;;;2115138;28;20373;-44
2022/12/10 08:47:13;;;;;;;;;;;;;;;;;;2115264;28;20070;-44
2022/12/10 08:48:14;;;;;;;86.03;37.35;;;;;;;;;;2114759;28;19959;-44
2022/12/10 08:49:16;;;;;;;118.28;52.60;;;;;;;;;;2114929;28;20323;-44
2022/12/10 08:50:17;;;;;;;138.18;57.95;;;;;;;;;;2114673;28;20391;-45
2022/12/10 08:51:19;;;;;;;132.83;55.20;;;;;;;;;;2114568;28;20055;-45
2022/12/10 08:52:20;;;;;;;82.28;34.47;;;;;;;;;;2114721;28;20059;-45
2022/12/10 08:53:21;;;;;;;66.30;31.80;;;;;;;;;;2114833;28;20058;-46
2022/12/10 08:54:22;;;;;;;72.18;33.55;;;;;;;;;;2114497;28;20051;-45
2022/12/10 08:55:23;;;;;;;127.15;49.45;;;;;;;;;;2114993;28;20097;-53
2022/12/10 08:56:24;;;;;;;61.57;29.33;;;;;;;;;;2114852;28;20437;-49
2022/12/10 08:57:25;;;;;;;49.72;24.60;;;;;;;;;;2114347;28;20055;-50
2022/12/10 08:58:26;;;;;;;78.53;36.65;;;;;;;;;;2113961;28;20396;-49
2022/12/10 08:59:27;;;;;;;81.10;39.55;;;;;;;;;;2114897;28;20054;-49
2022/12/10 09:00:28;;;;;;;77.78;38.15;;;;;;;;;;2114588;28;20381;-48
2022/12/10 09:01:30;;;;;;;64.38;33.42;;;;;;;;;;2114659;28;20090;-49
2022/12/10 09:02:30;;;;;;;67.93;32.17;;;;;;;;;;2114702;28;20063;-50
2022/12/10 09:03:32;;;;;;;74.07;37.40;;;;;;;;;;2114659;28;20142;-50
2022/12/10 09:04:33;;;;;;;41.85;21.95;;;;;;;;;;2114662;28;20044;-51